Portada
METAR-TAF:

METAR-TAF

Aeroports :

Manaus, Amazones, Brasil

latitud: 03-09S, longitud: 059-59W, altitud: 84 m

Observació

L'informe es va fer fa 27 minuts, a les 12:00 UTC
Vent 2 kt del Nord/Nord-Est
Temperatura 28°C
Humitat 79%
Pressió 1014 hPa
Visibilitat 10 km o més
Escasses núvols a una alçada de 1000 ft

METAR: SBMN 161200Z 02002KT 9999 FEW010 28/24 Q1014

Hora: 08:27 (12:27 UTC)

Pronòstic

L'informe es va fer fa 2 hores i 27 minuts, a les 10:00 UTC
Pronòstic vàlid del 16 a les 12 UTC al 16 a les 24 UTC
Vent 5 kt del Est/Nord-Est
Visibilitat 10 km o més
Núvols disperses a una alçada de 1500 ft
Evolucionant progressivament
l' 16 a les 15 UTC al 16 a les 17 UTC
Vent 3 kt del Sud-Est
Núvols disperses a una alçada de 2000 ft
Escasses núvols a una alçada de 2500 ft, Cumulus congestus.

TAF: SBMN 161000Z 1612/1624 07005KT 9999 SCT015 TN27/1612Z TX31/1618Z BECMG 1615/1617 13003KT SCT020 FEW025TCU RMK PAZ

Observacions i pronòstics meteorològics de més de 4000 aeroports (METAR i TAF).

Les estacions disponibles són els punts grocs i vermells al mapa.

Posi el ratolí al punt desitjat per veure el nom de l'estació.

Feu clic per veure les observacions i els pronòstics meteorològics.

Per canviar el mapa: feu clic els botons verds amb una creu de color negre per apropar; al botó verd amb un guió per allunyar la imatge; o en les fletxes verdes per a mapes adjacents.


METAR-TAF: